createdAt,value
2019-05-23T00:00:49.142Z,95.70
2019-05-23T00:03:57.180Z,95.40
2019-05-23T00:06:45.872Z,95.00
2019-05-23T00:09:33.649Z,96.20
2019-05-23T00:12:21.940Z,96.00
2019-05-23T00:14:57.672Z,95.60
2019-05-23T00:17:29.768Z,95.70
2019-05-23T00:20:01.529Z,96.30
2019-05-23T00:22:32.324Z,96.60
2019-05-23T00:25:04.097Z,96.10
2019-05-23T00:27:36.896Z,96.30
2019-05-23T00:30:09.769Z,96.20
2019-05-23T00:32:47.029Z,96.00
2019-05-23T00:35:17.629Z,96.00
2019-05-23T00:37:48.894Z,95.90
2019-05-23T00:40:18.437Z,96.90
2019-05-23T00:42:50.433Z,97.40
2019-05-23T00:45:22.314Z,97.70
2019-05-23T00:47:53.163Z,99.10
2019-05-23T00:50:26.282Z,98.40
2019-05-23T00:52:57.677Z,97.70
2019-05-23T00:55:27.432Z,97.50
2019-05-23T00:57:58.754Z,97.40
2019-05-23T01:00:30.234Z,98.80
2019-05-23T01:02:59.952Z,98.20
2019-05-23T01:05:31.299Z,98.30
2019-05-23T01:08:01.718Z,97.90
2019-05-23T01:10:33.532Z,98.20
2019-05-23T01:13:06.234Z,98.70
2019-05-23T01:15:40.521Z,99.50
2019-05-23T01:18:11.922Z,99.80
2019-05-23T01:20:51.779Z,99.70
2019-05-23T01:23:25.256Z,99.70
2019-05-23T01:25:56.077Z,99.80
2019-05-23T01:28:26.833Z,99.90
2019-05-23T01:31:16.877Z,99.90
2019-05-23T01:33:49.897Z,99.90
2019-05-23T01:36:20.674Z,99.90
2019-05-23T01:38:51.501Z,99.90
2019-05-23T01:41:22.877Z,99.90
2019-05-23T01:43:53.428Z,99.90
2019-05-23T01:46:24.325Z,99.90
2019-05-23T01:48:54.845Z,99.90
2019-05-23T01:51:25.124Z,99.90
2019-05-23T01:53:55.401Z,99.90
2019-05-23T01:56:25.814Z,99.90
2019-05-23T01:58:56.485Z,99.90
2019-05-23T02:01:27.000Z,99.90
2019-05-23T02:03:57.960Z,99.90
2019-05-23T02:06:28.824Z,99.90
2019-05-23T02:09:04.515Z,99.90
2019-05-23T02:11:35.512Z,99.90
2019-05-23T02:14:07.682Z,99.90
2019-05-23T02:16:39.647Z,99.90
2019-05-23T02:19:13.639Z,99.90
2019-05-23T02:21:46.307Z,99.90
2019-05-23T02:24:17.241Z,99.90
2019-05-23T02:26:48.590Z,99.90
2019-05-23T02:29:20.517Z,99.70
2019-05-23T02:31:50.794Z,99.80
2019-05-23T02:34:21.183Z,99.70
2019-05-23T02:36:51.906Z,99.80
2019-05-23T02:39:32.937Z,99.80
2019-05-23T02:42:04.965Z,99.80
2019-05-23T02:44:35.748Z,99.30
2019-05-23T02:47:13.851Z,99.50
2019-05-23T02:49:47.900Z,99.30
2019-05-23T02:52:37.594Z,99.10
2019-05-23T02:55:13.646Z,99.70
2019-05-23T02:57:47.134Z,99.90
2019-05-23T03:00:54.265Z,99.90
2019-05-23T03:03:21.866Z,99.90
2019-05-23T03:05:52.436Z,99.70
2019-05-23T03:08:24.450Z,99.60
2019-05-23T03:11:08.325Z,99.80
2019-05-23T03:13:40.809Z,99.90
2019-05-23T03:16:16.567Z,99.80
2019-05-23T03:18:50.464Z,99.90
2019-05-23T03:21:21.234Z,99.90
2019-05-23T03:23:51.925Z,99.70
2019-05-23T03:26:34.823Z,99.90
2019-05-23T03:29:06.188Z,99.90
2019-05-23T03:31:37.304Z,99.90
2019-05-23T03:34:08.912Z,99.90
2019-05-23T03:36:39.192Z,99.90
2019-05-23T03:39:11.380Z,99.90
2019-05-23T03:41:41.658Z,99.90
2019-05-23T03:44:13.761Z,99.90
2019-05-23T03:46:45.628Z,99.90
2019-05-23T03:49:16.301Z,99.90
2019-05-23T03:51:46.900Z,99.90
2019-05-23T03:54:18.261Z,99.90
2019-05-23T03:56:48.415Z,99.80
2019-05-23T03:59:18.793Z,99.90
2019-05-23T04:01:51.801Z,99.90
2019-05-23T04:04:24.260Z,99.90
2019-05-23T04:06:55.320Z,99.60
2019-05-23T04:09:25.650Z,99.60
2019-05-23T04:11:56.676Z,99.30
2019-05-23T04:14:27.838Z,99.00
2019-05-23T04:16:58.535Z,98.90
2019-05-23T04:19:28.935Z,98.70
2019-05-23T04:21:59.437Z,98.80
2019-05-23T04:24:29.841Z,98.90
2019-05-23T04:27:00.229Z,98.80
2019-05-23T04:29:30.520Z,98.80
2019-05-23T04:32:07.793Z,99.10
2019-05-23T04:34:32.816Z,99.00
2019-05-23T04:37:03.284Z,99.50
2019-05-23T04:39:34.676Z,99.20
2019-05-23T04:42:05.798Z,98.80
2019-05-23T04:44:35.888Z,98.80
2019-05-23T04:47:06.700Z,98.60
2019-05-23T04:49:37.748Z,98.70
2019-05-23T04:52:09.247Z,98.80
2019-05-23T04:54:39.709Z,98.60
2019-05-23T04:57:10.104Z,98.40
2019-05-23T04:59:40.872Z,98.60
2019-05-23T05:02:25.579Z,98.20
2019-05-23T05:04:44.903Z,98.00
2019-05-23T05:07:15.638Z,97.60
2019-05-23T05:09:46.388Z,97.50
2019-05-23T05:12:17.555Z,97.00
2019-05-23T05:14:48.564Z,97.00
2019-05-23T05:17:18.937Z,97.40
2019-05-23T05:19:49.434Z,97.00
2019-05-23T05:22:20.210Z,97.30
2019-05-23T05:24:50.508Z,97.20
2019-05-23T05:27:20.779Z,97.00
2019-05-23T05:29:52.094Z,96.90
2019-05-23T05:32:23.157Z,97.00
2019-05-23T05:34:53.660Z,97.50
2019-05-23T05:37:23.927Z,97.80
2019-05-23T05:39:54.535Z,97.80
2019-05-23T05:42:24.784Z,97.80
2019-05-23T05:44:55.196Z,97.90
2019-05-23T05:47:25.560Z,97.20
2019-05-23T05:49:55.855Z,97.20
2019-05-23T05:52:26.352Z,96.70
2019-05-23T05:54:56.620Z,96.40
2019-05-23T05:57:27.260Z,96.80
2019-05-23T05:59:57.344Z,96.60
2019-05-23T06:02:27.943Z,96.70
2019-05-23T06:04:58.279Z,96.20
2019-05-23T06:07:32.773Z,96.50
2019-05-23T06:10:03.681Z,96.40
2019-05-23T06:12:33.994Z,96.30
2019-05-23T06:15:06.718Z,96.30
2019-05-23T06:17:37.016Z,95.90
2019-05-23T06:20:07.630Z,96.20
2019-05-23T06:22:38.541Z,95.80
2019-05-23T06:25:10.333Z,95.50
2019-05-23T06:27:40.944Z,96.50
2019-05-23T06:30:13.752Z,96.50
2019-05-23T06:32:44.042Z,95.30
2019-05-23T06:35:14.504Z,94.90
2019-05-23T06:37:45.477Z,94.80
2019-05-23T06:40:16.577Z,94.40
2019-05-23T06:42:50.499Z,94.60
2019-05-23T06:45:19.704Z,94.20
2019-05-23T06:47:50.105Z,94.40
2019-05-23T06:50:21.691Z,94.30
2019-05-23T06:52:52.093Z,94.00
2019-05-23T06:55:22.356Z,94.50
2019-05-23T06:57:52.957Z,95.00
2019-05-23T07:00:25.396Z,94.60
2019-05-23T07:02:55.675Z,94.40
2019-05-23T07:05:35.608Z,95.20
2019-05-23T07:08:07.786Z,95.40
2019-05-23T07:10:40.172Z,94.30
2019-05-23T07:13:10.488Z,94.60
2019-05-23T07:15:40.872Z,93.90
2019-05-23T07:18:11.148Z,94.90
2019-05-23T07:20:41.443Z,95.70
2019-05-23T07:23:12.625Z,95.30
2019-05-23T07:25:42.929Z,94.80
2019-05-23T07:28:13.200Z,94.90
2019-05-23T07:30:43.514Z,94.40
2019-05-23T07:33:14.413Z,94.50
2019-05-23T07:35:44.737Z,94.00
2019-05-23T07:38:15.129Z,94.20
2019-05-23T07:40:45.837Z,93.40
2019-05-23T07:43:16.574Z,93.90
2019-05-23T07:45:57.590Z,93.50
2019-05-23T07:48:28.956Z,94.30
2019-05-23T07:51:00.246Z,93.80
2019-05-23T07:53:47.147Z,94.40
2019-05-23T07:56:25.152Z,93.20
2019-05-23T07:58:55.549Z,93.20
2019-05-23T08:01:27.490Z,92.40
2019-05-23T08:03:58.806Z,92.80
2019-05-23T08:06:28.213Z,91.80
2019-05-23T08:08:58.937Z,90.70
2019-05-23T08:11:29.206Z,90.40
2019-05-23T08:14:00.305Z,90.60
2019-05-23T08:16:30.803Z,90.10
2019-05-23T08:19:01.083Z,90.40
2019-05-23T08:21:31.239Z,89.20
2019-05-23T08:24:01.534Z,86.60
2019-05-23T08:26:32.352Z,84.40
2019-05-23T08:29:24.674Z,86.30
2019-05-23T08:31:34.413Z,87.20
2019-05-23T08:34:06.291Z,87.80
2019-05-23T08:36:36.475Z,86.30
2019-05-23T08:39:08.706Z,84.50
2019-05-23T08:41:40.517Z,85.20
2019-05-23T08:44:11.677Z,86.70
2019-05-23T08:46:42.133Z,85.00
2019-05-23T08:49:12.516Z,83.10
2019-05-23T08:51:42.649Z,83.40
2019-05-23T08:54:12.767Z,85.00
2019-05-23T08:56:42.916Z,80.90
2019-05-23T08:59:13.669Z,80.60
2019-05-23T09:01:44.089Z,81.00
2019-05-23T09:04:15.034Z,81.60
2019-05-23T09:06:45.418Z,81.90
2019-05-23T09:09:29.172Z,80.50
2019-05-23T09:11:48.007Z,79.40
2019-05-23T09:14:18.052Z,81.50
2019-05-23T09:16:48.895Z,80.80
2019-05-23T09:19:19.160Z,78.40
2019-05-23T09:21:49.176Z,78.20
2019-05-23T09:24:19.376Z,79.10
2019-05-23T09:26:49.519Z,79.80
2019-05-23T09:29:19.902Z,79.50
2019-05-23T09:31:50.063Z,77.30
2019-05-23T09:34:20.625Z,77.90
2019-05-23T09:36:50.720Z,77.60
2019-05-23T09:39:22.363Z,78.20
2019-05-23T09:41:52.680Z,79.50
2019-05-23T09:44:22.886Z,79.90
2019-05-23T09:46:53.190Z,76.80
2019-05-23T09:49:23.761Z,76.50
2019-05-23T09:51:58.100Z,77.40
2019-05-23T09:54:25.637Z,74.50
2019-05-23T09:56:56.011Z,76.60
2019-05-23T09:59:26.184Z,74.00
2019-05-23T10:01:57.082Z,73.80
2019-05-23T10:04:27.076Z,75.90
2019-05-23T10:06:57.401Z,76.60
2019-05-23T10:09:27.614Z,73.20
2019-05-23T10:11:58.065Z,72.40
2019-05-23T10:14:29.809Z,74.70
2019-05-23T10:16:59.928Z,72.80
2019-05-23T10:19:29.989Z,75.90
2019-05-23T10:22:00.265Z,70.10
2019-05-23T10:24:30.513Z,72.20
2019-05-23T10:27:00.419Z,71.60
2019-05-23T10:29:30.640Z,71.40
2019-05-23T10:32:00.911Z,73.00
2019-05-23T10:34:32.128Z,73.50
2019-05-23T10:37:02.240Z,70.50
2019-05-23T10:39:32.432Z,69.00
2019-05-23T10:42:02.804Z,73.50
2019-05-23T10:44:32.831Z,66.70
2019-05-23T10:47:03.023Z,68.80
2019-05-23T10:49:33.108Z,67.60
2019-05-23T10:52:03.220Z,70.60
2019-05-23T10:54:33.447Z,65.50
2019-05-23T10:57:03.532Z,73.50
2019-05-23T10:59:33.655Z,71.90
2019-05-23T11:02:04.035Z,70.10
2019-05-23T11:04:35.073Z,64.60
2019-05-23T11:07:05.553Z,65.80
2019-05-23T11:09:38.295Z,67.90
2019-05-23T11:12:08.749Z,71.10
2019-05-23T11:14:39.478Z,71.10
2019-05-23T11:17:09.927Z,70.60
2019-05-23T11:19:40.239Z,70.60
2019-05-23T11:22:11.133Z,68.20
2019-05-23T11:24:41.288Z,67.80
2019-05-23T11:27:11.408Z,69.50
2019-05-23T11:29:41.694Z,69.00
2019-05-23T11:32:12.484Z,69.20
2019-05-23T11:34:42.564Z,67.40
2019-05-23T11:37:12.692Z,67.80
2019-05-23T11:39:49.872Z,64.90
2019-05-23T11:42:15.516Z,59.80
2019-05-23T11:44:45.463Z,64.90
2019-05-23T11:47:15.598Z,64.50
2019-05-23T11:49:46.766Z,63.50
2019-05-23T11:52:16.389Z,65.40
2019-05-23T11:54:47.450Z,64.00
2019-05-23T12:03:47.053Z,65.00
2019-05-23T12:09:23.656Z,61.90
2019-05-23T12:11:54.009Z,56.80
2019-05-23T12:14:32.592Z,62.60
2019-05-23T12:17:02.789Z,62.30
2019-05-23T12:19:47.702Z,60.00
2019-05-23T12:22:25.436Z,59.10
2019-05-23T12:24:57.414Z,60.70
2019-05-23T12:27:29.070Z,60.80
2019-05-23T12:30:10.095Z,58.70
2019-05-23T12:32:41.641Z,56.70
2019-05-23T12:35:17.044Z,60.30
2019-05-23T12:37:48.918Z,59.60
2019-05-23T12:40:23.336Z,60.30
2019-05-23T12:42:53.473Z,59.10
2019-05-23T12:45:25.205Z,59.90
2019-05-23T12:48:16.693Z,59.00
2019-05-23T12:50:53.829Z,62.10
2019-05-23T12:53:24.718Z,60.20
2019-05-23T12:55:55.445Z,58.00
2019-05-23T12:58:25.692Z,57.20
2019-05-23T13:00:57.424Z,55.70
2019-05-23T13:03:28.204Z,53.10
2019-05-23T13:05:58.629Z,57.60
2019-05-23T13:08:29.307Z,56.70
2019-05-23T13:10:59.385Z,54.80
2019-05-23T13:13:29.425Z,57.00
2019-05-23T13:15:59.612Z,58.10
2019-05-23T13:18:29.724Z,56.90
2019-05-23T13:20:59.937Z,59.00
2019-05-23T13:23:30.106Z,56.60
2019-05-23T13:26:00.089Z,56.30
2019-05-23T13:28:30.280Z,54.80
2019-05-23T13:31:00.423Z,56.00
2019-05-23T13:33:30.450Z,54.70
2019-05-23T13:36:00.596Z,56.60
2019-05-23T13:38:30.906Z,57.60
2019-05-23T13:41:00.983Z,57.90
2019-05-23T13:43:31.430Z,59.70
2019-05-23T13:46:01.488Z,56.90
2019-05-23T13:48:31.936Z,55.80
2019-05-23T13:51:02.168Z,50.40
2019-05-23T13:53:32.560Z,49.30
2019-05-23T13:56:02.777Z,48.50
2019-05-23T13:58:33.021Z,48.80
2019-05-23T14:01:08.564Z,48.60
2019-05-23T14:03:35.506Z,49.10
2019-05-23T14:06:07.255Z,46.10
2019-05-23T14:08:37.269Z,48.60
2019-05-23T14:11:07.909Z,51.20
2019-05-23T14:13:37.971Z,49.90
2019-05-23T14:16:09.399Z,51.00
2019-05-23T14:18:40.114Z,47.50
2019-05-23T14:21:10.509Z,48.90
2019-05-23T14:23:40.583Z,52.10
2019-05-23T14:26:11.399Z,51.50
2019-05-23T14:28:40.622Z,48.20
2019-05-23T14:31:15.456Z,45.70
2019-05-23T14:33:49.894Z,45.80
2019-05-23T14:36:21.755Z,44.80
2019-05-23T14:38:53.565Z,43.70
2019-05-23T14:41:23.617Z,43.60
2019-05-23T14:43:53.615Z,41.90
2019-05-23T14:46:25.299Z,41.80
2019-05-23T14:49:00.436Z,45.90
2019-05-23T14:51:32.094Z,46.60
2019-05-23T14:54:22.052Z,45.00
2019-05-23T14:56:52.126Z,44.60
2019-05-23T14:59:23.805Z,43.80
2019-05-23T15:01:54.647Z,43.60
2019-05-23T15:04:25.647Z,43.60
2019-05-23T15:06:55.654Z,44.40
2019-05-23T15:09:26.256Z,40.20
2019-05-23T15:11:56.625Z,42.10
2019-05-23T15:14:26.633Z,41.20
2019-05-23T15:16:56.680Z,40.30
2019-05-23T15:19:40.383Z,38.40
2019-05-23T15:21:58.420Z,37.90
2019-05-23T15:24:28.984Z,36.60
2019-05-23T15:26:59.021Z,41.70
2019-05-23T15:29:29.520Z,39.20
2019-05-23T15:32:02.797Z,38.50
2019-05-23T15:34:34.690Z,38.80
2019-05-23T15:37:02.936Z,40.40
2019-05-23T15:39:33.012Z,37.00
2019-05-23T15:42:03.348Z,36.10
2019-05-23T15:44:33.478Z,35.60
2019-05-23T15:47:03.627Z,40.20
2019-05-23T15:49:34.064Z,36.60
2019-05-23T15:52:06.004Z,38.10
2019-05-23T15:54:53.383Z,36.10
2019-05-23T15:57:27.901Z,36.60
2019-05-23T16:03:17.512Z,35.00
2019-05-23T16:05:47.791Z,36.40
2019-05-23T16:08:18.446Z,34.40
2019-05-23T16:10:47.807Z,35.50
2019-05-23T16:13:18.320Z,35.90
2019-05-23T16:15:49.020Z,35.20
2019-05-23T16:18:18.808Z,36.50
2019-05-23T16:20:49.324Z,35.70
2019-05-23T16:23:20.413Z,37.30
2019-05-23T16:25:53.640Z,38.50
2019-05-23T16:28:23.797Z,35.30
2019-05-23T16:30:53.885Z,35.70
2019-05-23T16:33:23.936Z,34.50
2019-05-23T16:35:57.503Z,34.10
2019-05-23T16:38:28.628Z,34.20
2019-05-23T16:40:59.069Z,34.10
2019-05-23T16:43:38.774Z,34.30
2019-05-23T16:46:10.517Z,33.40
2019-05-23T16:48:40.653Z,33.10
2019-05-23T16:51:15.014Z,33.80
2019-05-23T16:53:48.452Z,32.20
2019-05-23T16:56:22.935Z,31.50
2019-05-23T16:59:19.068Z,34.80
2019-05-23T17:02:10.994Z,35.40
2019-05-23T17:05:09.719Z,36.10
2019-05-23T17:07:46.946Z,35.00
2019-05-23T17:11:06.768Z,37.00
2019-05-23T17:21:04.750Z,36.30
2019-05-23T17:23:42.594Z,38.10
2019-05-23T17:26:16.466Z,38.40
2019-05-23T17:28:54.075Z,37.60
2019-05-23T17:31:37.844Z,38.50
2019-05-23T17:34:08.202Z,38.70
2019-05-23T17:37:06.492Z,38.70
2019-05-23T17:39:57.699Z,38.80
2019-05-23T17:42:42.932Z,40.70
2019-05-23T17:45:28.952Z,42.20
2019-05-23T17:51:01.204Z,43.20
2019-05-23T17:53:40.090Z,43.60
2019-05-23T17:56:49.593Z,44.70
2019-05-23T17:59:21.283Z,46.40
2019-05-23T18:01:51.939Z,47.30
2019-05-23T18:04:22.216Z,46.70
2019-05-23T18:06:52.763Z,47.80
2019-05-23T18:09:22.839Z,46.90
2019-05-23T18:11:55.451Z,47.50
2019-05-23T18:14:25.901Z,49.00
2019-05-23T18:16:57.268Z,50.10
2019-05-23T18:19:28.025Z,51.40
2019-05-23T18:21:58.584Z,52.90
2019-05-23T18:24:28.847Z,53.20
2019-05-23T18:27:00.244Z,54.90
2019-05-23T18:29:30.518Z,54.80
2019-05-23T18:32:00.665Z,56.70
2019-05-23T18:34:31.072Z,57.50
2019-05-23T18:37:01.411Z,58.60
2019-05-23T18:39:33.236Z,58.20
2019-05-23T18:42:03.384Z,61.40
2019-05-23T18:44:34.070Z,62.00
2019-05-23T18:47:05.875Z,64.20
2019-05-23T18:49:36.249Z,67.60
2019-05-23T18:52:06.608Z,67.80
2019-05-23T18:54:36.692Z,66.00
2019-05-23T19:10:56.823Z,72.90
2019-05-23T19:13:27.273Z,71.00
2019-05-23T19:26:14.492Z,79.00
2019-05-23T19:28:45.883Z,80.90
2019-05-23T19:31:16.080Z,81.50
2019-05-23T19:33:47.166Z,81.30
2019-05-23T19:36:19.200Z,81.90
2019-05-23T19:38:49.504Z,80.90
2019-05-23T19:41:36.343Z,80.10
2019-05-23T19:44:26.813Z,80.40
2019-05-23T19:57:38.472Z,78.20
2019-05-23T20:00:11.247Z,79.40
2019-05-23T20:02:52.065Z,78.50
2019-05-23T20:05:39.915Z,79.50
2019-05-23T20:08:10.548Z,81.00
2019-05-23T20:10:41.155Z,81.70
2019-05-23T20:13:11.387Z,81.20
2019-05-23T20:15:45.332Z,80.90
2019-05-23T20:18:13.365Z,81.40
2019-05-23T20:20:43.558Z,82.60
2019-05-23T20:23:16.074Z,84.00
2019-05-23T20:25:46.208Z,83.80
2019-05-23T20:28:16.626Z,83.20
2019-05-23T20:30:52.840Z,82.20
2019-05-23T20:33:23.263Z,83.50
2019-05-23T20:35:53.340Z,86.70
2019-05-23T20:38:24.630Z,88.40
2019-05-23T20:40:54.016Z,87.90
2019-05-23T20:43:24.061Z,85.30
2019-05-23T20:45:54.410Z,84.30
2019-05-23T20:48:25.088Z,84.20
2019-05-23T20:50:56.104Z,84.50
2019-05-23T20:53:26.367Z,83.90
2019-05-23T20:55:56.482Z,83.60
2019-05-23T20:58:26.644Z,83.40
2019-05-23T21:01:16.210Z,83.00
2019-05-23T21:03:45.547Z,83.80
2019-05-23T21:06:15.734Z,83.90
2019-05-23T21:08:45.788Z,84.20
2019-05-23T21:11:15.754Z,83.60
2019-05-23T21:13:46.869Z,84.80
2019-05-23T21:16:17.094Z,84.10
2019-05-23T21:18:49.730Z,83.00
2019-05-23T21:21:18.994Z,82.70
2019-05-23T21:23:49.252Z,82.70
2019-05-23T21:26:19.446Z,82.20
2019-05-23T21:28:49.694Z,82.40
2019-05-23T21:31:21.469Z,83.00
2019-05-23T21:33:51.554Z,84.30
2019-05-23T21:36:21.662Z,84.70
2019-05-23T21:38:51.894Z,84.60
2019-05-23T21:41:22.910Z,83.90
2019-05-23T21:43:54.703Z,84.30
2019-05-23T21:46:24.928Z,84.60
2019-05-23T21:48:55.171Z,84.40
2019-05-23T21:51:25.283Z,85.30
2019-05-23T21:53:55.415Z,86.30
2019-05-23T21:56:25.546Z,86.70
2019-05-23T21:58:55.634Z,86.30
2019-05-23T22:01:27.980Z,86.30
2019-05-23T22:04:05.553Z,87.00
2019-05-23T22:06:44.198Z,87.90
2019-05-23T22:09:14.422Z,89.00
2019-05-23T22:11:44.636Z,89.60
2019-05-23T22:14:14.955Z,89.70
2019-05-23T22:16:45.133Z,89.40
2019-05-23T22:19:16.892Z,89.40
2019-05-23T22:21:47.027Z,90.00
2019-05-23T22:24:17.576Z,90.10
2019-05-23T22:26:47.805Z,90.30
2019-05-23T22:29:17.818Z,90.60
2019-05-23T22:31:47.871Z,90.30
2019-05-23T22:34:31.303Z,90.40
2019-05-23T22:37:01.696Z,91.10
2019-05-23T22:39:31.764Z,91.30
2019-05-23T22:42:02.075Z,91.10
2019-05-23T22:44:32.225Z,91.00
2019-05-23T22:47:03.388Z,91.10
2019-05-23T22:49:33.512Z,91.00
2019-05-23T22:52:04.199Z,91.00
2019-05-23T22:54:34.337Z,91.40
2019-05-23T22:57:23.688Z,92.00
2019-05-23T22:59:53.807Z,92.30
2019-05-23T23:02:24.859Z,92.10
2019-05-23T23:04:54.915Z,91.40
2019-05-23T23:07:25.210Z,90.70
2019-05-23T23:09:55.252Z,90.60
2019-05-23T23:12:25.563Z,90.60
2019-05-23T23:14:55.686Z,90.40
2019-05-23T23:17:25.867Z,90.60
2019-05-23T23:19:55.911Z,90.60
2019-05-23T23:22:25.935Z,90.50
2019-05-23T23:24:56.155Z,90.50
2019-05-23T23:27:26.307Z,90.10
2019-05-23T23:29:56.423Z,90.50
2019-05-23T23:32:26.586Z,91.30
2019-05-23T23:34:56.695Z,91.00
2019-05-23T23:37:27.175Z,91.40
2019-05-23T23:39:57.224Z,91.50
2019-05-23T23:42:27.273Z,91.60
2019-05-23T23:45:15.264Z,91.50
2019-05-23T23:48:02.927Z,91.40
2019-05-23T23:50:50.900Z,91.10
2019-05-23T23:53:39.455Z,90.90
2019-05-23T23:56:27.675Z,90.60
2019-05-23T23:58:57.031Z,90.50
